Latest Weather Observations for Latrobe Valley

IDV60801

Issued at 3:03 am EDT Friday 9 December 2016 (issued every 30 minutes, with the page automatically refreshed every 10 minutes)

About weather observations | Map of weather stations | Latest weather observations for VIC | Other Formats
Station Details ID: 085280 Name: LATROBE VALLEY AIRPORT Lat: -38.21 Lon: 146.47 Height: 55.7 m
Data from the previous 72 hours. | See also: Recent months at Latrobe Valley
Date/Time
EDT
Temp
°C
App
Temp
°C
Dew
Point
°C
Rel
Hum
%
Delta-T
°C
Wind Press
QNH
hPa
Press
MSL
hPa
Rain since
9am
mm
Dir  Spd
km/h
Gust
km/h
Spd
kts
Gust
kts
09/03:00am 9.9 4.8 7.5 85 1.2 W 24 30 13 16 1006.1 1006.0 16.2
09/02:30am 10.5 4.4 8.3 86 1.1 WNW 30 41 16 22 1005.8 1005.7 16.2
09/02:00am 11.0 6.1 8.4 84 1.3 WNW 24 32 13 17 1005.7 1005.6 16.2
09/01:30am 11.3 6.0 8.3 82 1.5 WNW 26 33 14 18 1005.8 1005.7 16.2
09/01:00am 11.7 6.7 8.2 79 1.7 WNW 24 33 13 18 1005.5 1005.4 16.2
09/12:30am 11.8 6.4 8.1 78 1.8 W 26 35 14 19 1005.3 1005.2 16.2
09/12:00am 12.0 6.1 7.5 74 2.2 W 28 39 15 21 1005.0 1004.9 16.2
 
Date/Time
EDT
Temp
°C
App
Temp
°C
Dew
Point
°C
Rel
Hum
%
Delta-T
°C
Wind Press
QNH
hPa
Press
MSL
hPa
Rain since
9am
mm
Dir  Spd
km/h
Gust
km/h
Spd
kts
Gust
kts
08/11:30pm 12.4 5.8 7.7 73 2.3 W 32 41 17 22 1004.8 1004.7 16.2
08/11:00pm 12.2 6.7 9.2 82 1.5 W 28 39 15 21 1004.7 1004.6 16.0
08/10:30pm 12.4 7.5 10.0 85 1.2 W 26 43 14 23 1004.0 1003.9 16.0
08/10:00pm 12.4 7.5 9.8 84 1.3 W 26 35 14 19 1003.5 1003.4 16.0
08/09:30pm 12.6 7.7 9.8 83 1.4 W 26 35 14 19 1003.1 1003.0 16.0
08/09:00pm 13.3 8.9 10.5 83 1.5 W 24 35 13 19 1002.9 1002.8 16.0
08/08:38pm 13.3 8.3 10.8 85 1.3 WSW 28 37 15 20 1002.2 1002.1 16.0
08/08:30pm 13.2 8.7 11.4 89 1.0 WSW 26 35 14 19 1002.0 1001.9 16.0
08/08:20pm 13.5 7.9 11.4 87 1.1 WSW 32 44 17 24 1001.7 1001.6 15.6
08/08:00pm 14.7 10.2 10.1 74 2.4 W 24 35 13 19 1001.0 1000.9 14.8
08/07:30pm 15.5 9.8 9.8 69 3.0 W 30 43 16 23 1000.4 1000.3 14.8
08/07:00pm 16.3 8.9 9.7 65 3.5 W 39 70 21 38 999.9 999.7 14.6
08/06:59pm 16.9 9.8 9.6 62 3.8 W 37 70 20 38 999.8 999.6 14.6
08/06:57pm 18.2 11.7 8.2 52 5.1 W 32 52 17 28 999.7 999.5 14.6
08/06:30pm 19.5 11.7 8.2 48 5.9 W 39 54 21 29 998.4 998.2 14.6
08/06:00pm 19.9 11.6 7.9 46 6.2 W 41 61 22 33 998.1 997.9 14.6
08/05:56pm 19.9 11.9 7.3 44 6.4 W 39 59 21 32 997.9 997.7 14.6
08/05:30pm 20.8 12.2 8.1 44 6.6 W 43 59 23 32 997.3 997.1 14.6
08/05:00pm 20.8 12.0 7.4 42 6.9 W 43 69 23 37 996.8 996.6 14.6
08/04:54pm 20.6 11.7 7.6 43 6.7 W 44 69 24 37 996.8 996.6 14.6
08/04:40pm 20.9 15.1 9.5 48 6.1 W 30 50 16 27 996.7 996.5 14.6
08/04:30pm 19.9 14.7 10.3 54 5.2 W 28 44 15 24 996.8 996.6 14.6
08/04:00pm 18.1 13.4 12.1 68 3.3 W 28 39 15 21 996.7 996.5 14.6
08/03:30pm 17.9 15.1 14.4 80 2.0 WNW 22 28 12 15 997.1 996.9 14.6
08/03:00pm 15.7 13.4 14.1 90 0.9 W 19 22 10 12 997.7 997.5 14.6
08/02:30pm 14.5 13.0 13.2 92 0.7 W 13 17 7 9 997.6 997.4 14.6
08/02:12pm 13.6 11.1 12.2 91 0.8 WSW 17 22 9 12 997.8 997.6 13.8
08/02:00pm 13.4 10.2 11.8 90 0.9 WSW 20 30 11 16 997.7 997.5 13.6
08/01:54pm 13.3 10.0 11.5 89 1.0 WSW 20 30 11 16 997.6 997.4 13.0
08/01:42pm 13.4 9.0 11.6 89 1.0 WSW 26 35 14 19 997.7 997.5 12.0
08/01:30pm 13.6 8.9 12.0 90 0.9 WSW 28 37 15 20 997.9 997.7 11.8
08/01:00pm 15.1 10.1 13.5 90 0.9 W 32 44 17 24 996.9 996.7 9.0
08/12:52pm 16.0 11.1 14.4 90 0.9 WNW 33 52 18 28 996.8 996.6 8.2
08/12:45pm 17.4 15.0 15.4 88 1.2 W 22 52 12 28 996.6 996.4 7.2
08/12:30pm 18.0 16.6 15.6 86 1.4 WSW 17 20 9 11 995.5 995.3 5.6
08/12:29pm 18.2 16.9 15.8 86 1.4 WSW 17 20 9 11 995.5 995.3 5.4
08/12:00pm 19.0 17.5 15.3 79 2.2 W 17 28 9 15 995.4 995.2 3.6
08/11:30am 18.4 16.8 15.1 81 1.9 NW 17 26 9 14 995.8 995.6 3.4
08/11:25am 18.6 16.5 14.7 78 2.3 NNW 19 28 10 15 996.0 995.8 3.2
08/11:00am 18.3 17.3 14.6 79 2.2 WSW 13 22 7 12 997.0 996.8 1.4
08/10:54am 18.1 16.0 14.6 80 2.0 SW 19 22 10 12 997.3 997.1 0.8
08/10:48am 18.8 17.0 14.5 76 2.5 WSW 17 26 9 14 997.6 997.4 0.2
08/10:30am 23.8 19.0 11.5 46 6.9 NW 28 57 15 31 996.6 996.4 0.0
08/10:10am 23.9 18.9 10.9 44 7.3 NW 28 46 15 25 996.5 996.3 0.0
08/10:00am 22.8 19.2 11.8 50 6.2 WNW 22 30 12 16 996.9 996.7 0.0
08/09:56am 22.6 19.4 11.4 49 6.3 W 19 30 10 16 996.8 996.6 0.0
08/09:30am 17.6 16.7 12.5 72 2.8 SW 9 15 5 8 997.7 997.5 0.0
08/09:00am 17.6 16.9 11.4 67 3.4 NE 6 11 3 6 997.6 997.4 0.0
08/08:30am 15.6 15.0 11.8 78 2.1 NE 6 11 3 6 998.2 998.0 0.0
08/08:00am 13.6 13.2 11.1 85 1.3 N 4 9 2 5 999.2 999.0 0.0
08/07:30am 13.0 12.1 11.2 89 1.0 NNE 7 15 4 8 999.5 999.3 0.0
08/07:00am 12.5 11.6 10.6 88 1.0 NW 6 17 3 9 1000.2 1000.1 0.0
08/06:30am 12.5 11.4 10.0 85 1.3 NNE 6 13 3 7 999.7 999.5 0.0
08/06:00am 13.5 11.1 9.9 79 1.9 ENE 13 20 7 11 999.4 999.2 0.0
08/05:30am 12.8 10.8 10.3 85 1.3 ENE 11 15 6 8 999.8 999.6 0.0
08/05:00am 11.4 10.1 9.8 90 0.8 NE 7 11 4 6 1000.1 1000.0 0.0
08/04:30am 11.0 9.2 9.3 89 0.9 NNE 9 11 5 6 1000.8 1000.7 0.0
08/04:00am 13.4 11.0 10.2 81 1.7 ENE 13 17 7 9 1001.2 1001.1 0.0
08/03:30am 13.0 11.0 10.2 83 1.4 ENE 11 17 6 9 1002.2 1002.1 0.0
08/03:00am 13.1 10.8 10.3 83 1.5 E 13 17 7 9 1003.0 1002.9 0.0
08/02:30am 13.2 10.8 10.0 81 1.7 E 13 19 7 10 1003.9 1003.8 0.0
08/02:00am 13.3 11.2 9.9 80 1.8 E 11 17 6 9 1004.9 1004.8 0.0
08/01:30am 13.3 10.9 9.9 80 1.8 E 13 20 7 11 1005.6 1005.5 0.0
08/01:00am 13.3 10.9 9.9 80 1.8 E 13 19 7 10 1006.6 1006.5 0.0
08/12:30am 13.2 11.1 9.6 79 1.8 E 11 19 6 10 1007.5 1007.4 0.0
08/12:00am 13.4 10.8 9.5 77 2.0 E 13 20 7 11 1008.0 1007.9 0.0
 
Date/Time
EDT
Temp
°C
App
Temp
°C
Dew
Point
°C
Rel
Hum
%
Delta-T
°C
Wind Press
QNH
hPa
Press
MSL
hPa
Rain since
9am
mm
Dir  Spd
km/h
Gust
km/h
Spd
kts
Gust
kts
07/11:30pm 13.5 11.3 9.4 76 2.1 E 11 17 6 9 1008.8 1008.7 0.0
07/11:00pm 13.6 10.9 8.9 73 2.4 ENE 13 19 7 10 1009.2 1009.1 0.0
07/10:30pm 13.9 11.0 8.3 69 2.8 ENE 13 17 7 9 1009.8 1009.7 0.0
07/10:00pm 14.5 11.6 8.0 65 3.3 ENE 13 20 7 11 1010.1 1010.0 0.0
07/09:30pm 15.2 12.6 7.7 61 3.7 ENE 11 17 6 9 1010.5 1010.4 0.0
07/09:00pm 15.9 12.0 7.1 56 4.4 ENE 17 22 9 12 1010.4 1010.3 0.0
07/08:30pm 16.7 12.7 6.5 51 5.0 ENE 17 24 9 13 1010.4 1010.3 0.0
07/08:00pm 18.2 14.3 7.3 49 5.5 E 17 28 9 15 1010.6 1010.5 0.0
07/07:30pm 19.7 15.2 7.1 44 6.4 ENE 20 32 11 17 1010.3 1010.2 0.0
07/07:00pm 20.8 16.4 6.4 39 7.3 E 19 30 10 16 1010.3 1010.2 0.0
07/06:30pm 22.0 17.6 6.7 37 7.8 E 19 30 10 16 1010.2 1010.1 0.0
07/06:00pm 22.6 18.7 7.2 37 8.0 ENE 17 28 9 15 1010.0 1009.9 0.0
07/05:30pm 24.9 22.6 7.5 33 9.2 N 9 20 5 11 1010.2 1010.1 0.0
07/05:00pm 25.2 22.8 5.4 28 10.1 ESE 7 17 4 9 1010.5 1010.4 0.0
07/04:30pm 25.2 22.6 5.9 29 9.9 S 9 13 5 7 1011.0 1010.9 0.0
07/04:00pm 24.9 22.2 5.7 29 9.8 SW 9 19 5 10 1011.1 1011.0 0.0
07/03:30pm 25.1 22.4 5.8 29 9.9 S 9 17 5 9 1011.6 1011.5 0.0
07/03:00pm 24.5 22.2 5.8 30 9.6 ENE 7 13 4 7 1012.0 1011.9 0.0
07/02:30pm 24.0 21.1 4.4 28 9.7 SW 9 15 5 8 1012.4 1012.3 0.0
07/02:00pm 23.8 20.6 5.2 30 9.4 WSW 11 17 6 9 1012.8 1012.7 0.0
07/01:30pm 23.0 20.5 5.0 31 9.0 SSW 7 11 4 6 1013.3 1013.1 0.0
07/01:00pm 21.7 19.1 4.3 32 8.5 NNE 7 13 4 7 1013.8 1013.6 0.0
07/12:30pm 20.4 18.3 4.0 34 7.9 N 4 9 2 5 1014.4 1014.2 0.0
07/12:00pm 21.3 18.7 6.0 37 7.7 NW 9 15 5 8 1014.7 1014.5 0.0
07/11:30am 19.5 17.4 5.6 40 6.9 NE 6 13 3 7 1014.9 1014.7 0.0
07/11:00am 19.2 17.0 6.0 42 6.5 WSW 7 9 4 5 1015.2 1015.0 0.0
07/10:30am 18.0 16.0 7.1 49 5.5 NNE 7 13 4 7 1015.6 1015.5 0.0
07/10:00am 17.2 15.7 6.7 50 5.2 ESE 4 9 2 5 1015.8 1015.7 0.0
07/09:30am 15.6 13.9 7.4 58 4.1 N 6 7 3 4 1016.0 1015.9 0.0
07/09:00am 14.8 13.7 8.5 66 3.2 WNW 4 7 2 4 1016.3 1016.2 0.0
07/08:30am 13.1 13.0 9.4 78 1.9 CALM 0 0 0 0 1016.4 1016.3 0.0
07/08:00am 10.7 9.2 8.5 86 1.1 SSW 6 7 3 4 1016.6 1016.5 0.0
07/07:30am 9.4 8.9 7.8 90 0.8 CALM 0 6 0 3 1016.3 1016.2 0.0
07/07:00am 8.1 7.4 6.9 92 0.6 CALM 0 0 0 0 1016.1 1016.0 0.0
07/06:36am 6.7 5.8 6.0 95 0.3 CALM 0 0 0 0 1015.9 1015.8 0.0
07/06:30am 5.8 4.7 4.9 94 0.4 CALM 0 0 0 0 1015.9 1015.8 0.0
07/06:21am 5.3 4.1 4.4 94 0.4 CALM 0 0 0 0 1015.8 1015.7 0.0
07/06:03am 4.6 3.2 3.6 93 0.4 CALM 0 0 0 0 1015.7 1015.6 0.0
07/06:00am 4.6 3.2 3.6 93 0.4 CALM 0 0 0 0 1015.7 1015.6 0.0
07/05:49am 5.0 3.7 4.0 93 0.4 CALM 0 0 0 0 1015.6 1015.5 0.0
07/05:30am 4.7 3.3 3.5 92 0.5 CALM 0 0 0 0 1015.4 1015.3 0.0
07/05:00am 5.0 3.6 3.7 91 0.5 CALM 0 0 0 0 1015.2 1015.0 0.0
07/04:30am 6.4 5.3 5.2 92 0.5 CALM 0 0 0 0 1014.9 1014.7 0.0
07/04:00am 6.0 4.8 4.5 90 0.6 CALM 0 0 0 0 1014.8 1014.6 0.0
07/03:30am 6.3 5.1 4.6 89 0.7 CALM 0 0 0 0 1014.8 1014.6 0.0
07/03:00am 7.3 5.2 5.8 90 0.7 S 6 7 3 4 1014.9 1014.7 0.0
07/02:30am 7.2 4.9 4.9 85 1.0 SSW 6 7 3 4 1015.0 1014.8 0.0
07/02:00am 8.7 6.8 6.5 86 1.0 SSW 6 7 3 4 1015.3 1015.1 0.0
07/01:30am 9.0 7.8 6.6 85 1.1 SW 2 7 1 4 1015.7 1015.6 0.0
07/01:00am 9.3 7.8 6.6 83 1.3 W 4 7 2 4 1015.8 1015.7 0.0
07/12:30am 9.9 7.5 6.8 81 1.5 W 9 9 5 5 1015.9 1015.8 0.0
07/12:00am 8.5 5.8 5.8 83 1.2 W 9 11 5 6 1016.1 1016.0 0.0
 
Date/Time
EDT
Temp
°C
App
Temp
°C
Dew
Point
°C
Rel
Hum
%
Delta-T
°C
Wind Press
QNH
hPa
Press
MSL
hPa
Rain since
9am
mm
Dir  Spd
km/h
Gust
km/h
Spd
kts
Gust
kts
06/11:30pm 9.5 7.3 6.2 80 1.5 WNW 7 9 4 5 1016.1 1016.0 0.0
06/11:00pm 10.7 8.6 6.6 76 1.9 WSW 7 11 4 6 1016.1 1016.0 0.0
06/10:30pm 10.6 7.3 6.6 76 1.9 WSW 13 15 7 8 1015.8 1015.7 0.0
06/10:00pm 11.9 8.3 6.8 71 2.4 WSW 15 19 8 10 1015.4 1015.3 0.0
06/09:30pm 12.4 8.4 6.7 68 2.7 SW 17 20 9 11 1014.9 1014.7 0.0
06/09:00pm 13.7 8.7 6.6 62 3.4 WSW 22 28 12 15 1014.6 1014.4 0.0
06/08:30pm 14.4 9.4 6.5 59 3.8 SW 22 28 12 15 1014.5 1014.3 0.0
06/08:00pm 15.5 10.1 6.2 54 4.5 SW 24 32 13 17 1014.1 1013.9 0.0
06/07:30pm 16.7 11.2 5.9 49 5.2 SW 24 32 13 17 1013.9 1013.7 0.0
06/07:00pm 17.5 11.4 6.4 48 5.5 SW 28 37 15 20 1013.5 1013.3 0.0
06/06:30pm 18.8 12.9 7.3 47 5.8 SW 28 39 15 21 1013.3 1013.1 0.0
06/06:00pm 19.7 13.8 7.4 45 6.3 SW 28 39 15 21 1012.7 1012.6 0.0
06/05:30pm 19.6 13.6 7.0 44 6.4 SW 28 37 15 20 1012.3 1012.2 0.0
06/05:00pm 20.2 14.0 7.9 45 6.4 SW 30 39 16 21 1012.1 1012.0 0.0
06/04:30pm 20.8 15.0 9.4 48 6.1 SW 30 41 16 22 1012.2 1012.1 0.0
06/04:00pm 20.7 14.9 9.3 48 6.1 SW 30 41 16 22 1012.4 1012.3 0.0
06/03:30pm 20.4 14.6 9.6 50 5.8 SW 30 39 16 21 1012.3 1012.2 0.0
06/03:00pm 20.7 14.5 9.3 48 6.1 SW 32 41 17 22 1012.2 1012.1 0.0
06/02:30pm 20.9 15.5 9.5 48 6.1 SW 28 39 15 21 1012.0 1011.9 0.0
06/02:00pm 22.1 16.5 8.6 42 7.2 W 28 39 15 21 1012.3 1012.2 0.0
06/01:30pm 20.4 15.8 9.6 50 5.8 W 24 35 13 19 1012.4 1012.3 0.0
06/01:00pm 19.0 14.7 9.5 54 5.0 WSW 22 30 12 16 1012.8 1012.7 0.0
06/12:30pm 18.7 15.9 10.0 57 4.6 WSW 15 24 8 13 1013.0 1012.9 0.0
06/12:00pm 17.9 15.9 10.0 60 4.2 SW 11 17 6 9 1012.9 1012.8 0.0
06/11:30am 17.6 15.2 10.0 61 4.0 SW 13 17 7 9 1013.0 1012.9 0.0
06/11:00am 17.2 14.4 9.9 62 3.9 WSW 15 22 8 12 1013.6 1013.4 0.0
06/10:30am 16.4 13.7 10.3 67 3.2 SW 15 19 8 10 1013.8 1013.6 0.0
06/10:00am 15.5 13.0 9.6 68 3.1 WSW 13 17 7 9 1013.8 1013.6 0.0
06/09:30am 14.9 12.0 9.5 70 2.8 SW 15 17 8 9 1014.0 1013.8 0.0
06/09:00am 14.9 12.3 9.5 70 2.8 WSW 13 17 7 9 1013.8 1013.6 0.0
06/08:30am 14.3 11.8 9.7 74 2.4 WSW 13 17 7 9 1014.1 1013.9 0.0
06/08:00am 13.7 11.5 10.7 82 1.6 WSW 13 17 7 9 1013.9 1013.7 0.0
06/07:45am 13.4 10.4 10.8 84 1.4 WSW 17 20 9 11 1013.8 1013.6 0.0
06/07:44am 13.4 10.5 10.9 85 1.3 WSW 17 20 9 11 1013.8 1013.6 0.0
06/07:30am 13.4 9.8 10.6 83 1.5 WSW 20 24 11 13 1013.9 1013.7 0.0
06/07:15am 13.6 10.9 10.2 80 1.8 WSW 15 19 8 10 1013.7 1013.5 0.0
06/07:00am 13.7 11.4 10.5 81 1.7 WSW 13 17 7 9 1013.3 1013.1 0.0
06/06:30am 13.5 12.0 10.7 83 1.5 WSW 9 13 5 7 1012.6 1012.5 0.0
06/06:00am 13.3 12.4 11.2 87 1.1 WSW 7 7 4 4 1012.0 1011.9 0.0
06/05:30am 13.2 13.6 11.1 87 1.1 CALM 0 0 0 0 1011.7 1011.6 0.0
06/05:00am 13.1 13.4 10.8 86 1.2 CALM 0 0 0 0 1011.4 1011.3 0.0
06/04:54am 13.1 13.4 10.8 86 1.2 CALM 0 0 0 0 1010.9 1010.8 0.0
06/04:30am 13.2 13.5 10.9 86 1.2 CALM 0 0 0 0 1011.4 1011.3 0.0
06/04:00am 13.1 13.3 10.6 85 1.3 CALM 0 0 0 0 1011.5 1011.4 0.0
06/03:30am 13.1 13.3 10.6 85 1.3 CALM 0 0 0 0 1011.4 1011.3 0.0

Other Formats:

Comma delimited format used in spreadsheet applications
http://www.bom.gov.au/fwo/IDV60801/IDV60801.94891.axf

JavaScript Object Notation format (JSON) in row-major order
http://www.bom.gov.au/fwo/IDV60801/IDV60801.94891.json